Time;durP1;ratioP1;P1;durP2;ratioP2;P2;SDS_P1;SDS_P2;PMS_P1;PMS_P2;Temp;Humidity;BMP_temperature;BMP_pressure;BME280_temperature;BME280_humidity;BME280_pressure;Samples;Min_cycle;Max_cycle;Signal;HPM_P1;HPM_P2
2021/04/23 00:00:43;;;;;;;8.82;3.25;;;;;;;;;;1496688;39;20399;-83
2021/04/23 00:01:44;;;;;;;8.70;2.97;;;;;;;;;;1496170;39;20403;-83
2021/04/23 00:02:46;;;;;;;11.52;3.35;;;;;;;;;;1492159;39;20443;-83
2021/04/23 00:03:55;;;;;;;12.43;2.90;;;;;;;;;;1492027;39;20417;-81
2021/04/23 00:04:56;;;;;;;8.98;3.00;;;;;;;;;;1495794;39;20391;-83
2021/04/23 00:06:05;;;;;;;10.32;3.38;;;;;;;;;;1498760;39;20427;-83
2021/04/23 00:07:06;;;;;;;12.07;3.17;;;;;;;;;;1498932;39;20408;-83
2021/04/23 00:08:07;;;;;;;12.00;3.63;;;;;;;;;;1496624;39;20393;-84
2021/04/23 00:09:08;;;;;;;14.63;3.22;;;;;;;;;;1496612;39;20408;-82
2021/04/23 00:10:13;;;;;;;12.32;2.97;;;;;;;;;;1496314;39;20458;-83
2021/04/23 00:11:15;;;;;;;8.70;2.43;;;;;;;;;;1498823;39;20390;-83
2021/04/23 00:12:16;;;;;;;6.90;3.20;;;;;;;;;;1496991;39;20412;-83
2021/04/23 00:13:18;;;;;;;6.78;2.60;;;;;;;;;;1497075;39;20480;-83
2021/04/23 00:14:24;;;;;;;15.95;3.35;;;;;;;;;;1497185;39;20381;-83
2021/04/23 00:15:25;;;;;;;11.98;2.92;;;;;;;;;;1497082;39;20389;-83
2021/04/23 00:16:26;;;;;;;7.27;2.60;;;;;;;;;;1495865;39;20398;-82
2021/04/23 00:17:28;;;;;;;12.38;2.95;;;;;;;;;;1495225;39;20396;-83
2021/04/23 00:18:30;;;;;;;9.43;2.83;;;;;;;;;;1499918;39;20836;-83
2021/04/23 00:19:31;;;;;;;10.80;3.03;;;;;;;;;;1498961;39;20660;-83
2021/04/23 00:20:32;;;;;;;12.77;2.97;;;;;;;;;;1494276;39;20401;-83
2021/04/23 00:21:36;;;;;;;11.30;2.95;;;;;;;;;;1491903;39;20694;-83
2021/04/23 00:22:37;;;;;;;9.82;3.30;;;;;;;;;;1491170;39;20428;-83
2021/04/23 00:23:39;;;;;;;11.93;2.65;;;;;;;;;;1486800;39;20414;-83
2021/04/23 00:24:40;;;;;;;20.40;4.03;;;;;;;;;;1487150;39;20407;-83
2021/04/23 00:25:41;;;;;;;8.52;2.55;;;;;;;;;;1491354;39;20452;-83
2021/04/23 00:26:43;;;;;;;11.88;3.20;;;;;;;;;;1491039;39;20402;-84
2021/04/23 00:27:44;;;;;;;9.98;2.90;;;;;;;;;;1495515;39;20407;-83
2021/04/23 00:28:46;;;;;;;9.70;2.95;;;;;;;;;;1496308;39;20407;-83
2021/04/23 00:29:49;;;;;;;12.05;3.17;;;;;;;;;;1496067;39;20400;-83
2021/04/23 00:30:52;;;;;;;8.95;2.70;;;;;;;;;;1497192;39;20428;-83
2021/04/23 00:33:13;;;;;;;11.85;2.60;;;;;;;;;;1494838;39;20394;-83
2021/04/23 00:34:14;;;;;;;11.88;2.40;;;;;;;;;;1494839;39;20417;-84
2021/04/23 00:35:15;;;;;;;16.63;2.97;;;;;;;;;;1497426;39;20557;-83
2021/04/23 00:36:17;;;;;;;14.82;3.22;;;;;;;;;;1495608;39;20407;-83
2021/04/23 00:37:19;;;;;;;13.77;2.90;;;;;;;;;;1490827;39;20397;-83
2021/04/23 00:38:22;;;;;;;12.52;3.20;;;;;;;;;;1492574;39;20393;-83
2021/04/23 00:39:23;;;;;;;9.55;2.75;;;;;;;;;;1497491;39;20400;-83
2021/04/23 00:40:28;;;;;;;14.15;2.63;;;;;;;;;;1496264;39;20442;-82
2021/04/23 00:41:31;;;;;;;12.38;2.63;;;;;;;;;;1492181;39;20444;-83
2021/04/23 00:42:32;;;;;;;9.80;2.80;;;;;;;;;;1497048;39;20418;-85
2021/04/23 00:43:37;;;;;;;11.63;3.17;;;;;;;;;;1494099;39;20405;-83
2021/04/23 00:44:38;;;;;;;14.38;2.83;;;;;;;;;;1489961;39;20433;-84
2021/04/23 00:45:39;;;;;;;10.60;2.72;;;;;;;;;;1494743;39;20786;-82
2021/04/23 00:46:40;;;;;;;10.82;3.05;;;;;;;;;;1498610;39;20406;-83
2021/04/23 00:47:43;;;;;;;10.38;2.53;;;;;;;;;;1498228;39;20408;-83
2021/04/23 00:48:47;;;;;;;11.63;2.75;;;;;;;;;;1498370;39;20416;-83
2021/04/23 00:49:50;;;;;;;14.30;3.83;;;;;;;;;;1497354;39;20481;-84
2021/04/23 00:50:55;;;;;;;10.45;2.60;;;;;;;;;;1497708;39;20435;-83
2021/04/23 00:51:57;;;;;;;7.25;2.85;;;;;;;;;;1498720;39;20403;-84
2021/04/23 00:52:59;;;;;;;12.93;2.60;;;;;;;;;;1497762;39;20410;-84
2021/04/23 00:54:02;;;;;;;13.23;3.22;;;;;;;;;;1493197;39;20453;-83
2021/04/23 00:55:04;;;;;;;12.57;3.20;;;;;;;;;;1491910;39;20394;-84
2021/04/23 00:56:07;;;;;;;15.05;2.80;;;;;;;;;;1496208;39;20435;-83
2021/04/23 00:57:08;;;;;;;10.43;2.55;;;;;;;;;;1496207;39;20451;-83
2021/04/23 00:58:11;;;;;;;9.63;2.38;;;;;;;;;;1491789;39;20390;-84
2021/04/23 00:59:13;;;;;;;12.95;3.10;;;;;;;;;;1495529;39;20418;-83
2021/04/23 01:00:14;;;;;;;11.55;2.88;;;;;;;;;;1496426;39;20387;-83
2021/04/23 01:01:17;;;;;;;18.55;3.58;;;;;;;;;;1495739;39;20768;-83
2021/04/23 01:02:19;;;;;;;14.73;3.15;;;;;;;;;;1495541;39;21036;-83
2021/04/23 01:03:21;;;;;;;16.13;3.33;;;;;;;;;;1491613;39;20412;-83
2021/04/23 01:04:23;;;;;;;13.50;3.25;;;;;;;;;;1495540;39;20723;-83
2021/04/23 01:05:29;;;;;;;11.60;2.55;;;;;;;;;;1495865;39;20466;-84
2021/04/23 01:06:32;;;;;;;10.30;3.00;;;;;;;;;;1491647;39;20444;-82
2021/04/23 01:07:34;;;;;;;13.98;3.75;;;;;;;;;;1488305;39;20667;-83
2021/04/23 01:08:35;;;;;;;13.40;2.95;;;;;;;;;;1495659;39;20410;-83
2021/04/23 01:09:36;;;;;;;15.85;2.85;;;;;;;;;;1496036;39;20396;-83
2021/04/23 01:10:37;;;;;;;10.00;3.22;;;;;;;;;;1495820;39;20404;-84
2021/04/23 01:11:40;;;;;;;12.40;3.45;;;;;;;;;;1491679;39;20475;-82
2021/04/23 01:12:41;;;;;;;14.13;3.35;;;;;;;;;;1492124;39;20948;-83
2021/04/23 01:13:42;;;;;;;11.30;3.03;;;;;;;;;;1500976;39;20387;-83
2021/04/23 01:14:43;;;;;;;13.65;3.78;;;;;;;;;;1501411;39;20422;-83
2021/04/23 01:15:44;;;;;;;8.70;2.47;;;;;;;;;;1497000;39;20393;-83
2021/04/23 01:16:46;;;;;;;8.57;2.78;;;;;;;;;;1492801;39;20426;-83
2021/04/23 01:17:47;;;;;;;9.95;2.22;;;;;;;;;;1497315;39;20419;-81
2021/04/23 01:18:50;;;;;;;14.40;3.15;;;;;;;;;;1493108;39;20418;-82
2021/04/23 01:19:52;;;;;;;10.25;2.83;;;;;;;;;;1497765;39;20496;-82
2021/04/23 01:21:08;;;;;;;13.95;3.00;;;;;;;;;;1500219;39;20415;-82
2021/04/23 01:22:09;;;;;;;11.75;2.63;;;;;;;;;;1499328;39;20403;-83
2021/04/23 01:23:11;;;;;;;8.80;2.80;;;;;;;;;;1501747;39;20532;-83
2021/04/23 01:24:13;;;;;;;13.18;3.30;;;;;;;;;;1502054;39;20403;-82
2021/04/23 01:25:14;;;;;;;12.20;2.88;;;;;;;;;;1501595;39;20403;-84
2021/04/23 01:26:17;;;;;;;12.57;2.60;;;;;;;;;;1500678;39;20418;-82
2021/04/23 01:27:18;;;;;;;12.18;2.72;;;;;;;;;;1497277;39;20559;-83
2021/04/23 01:28:19;;;;;;;11.55;3.10;;;;;;;;;;1497186;39;20424;-83
2021/04/23 01:29:21;;;;;;;12.30;2.65;;;;;;;;;;1497422;39;20391;-82
2021/04/23 01:30:22;;;;;;;9.43;2.30;;;;;;;;;;1496579;39;20403;-83
2021/04/23 01:31:25;;;;;;;14.68;4.00;;;;;;;;;;1491402;39;20409;-83
2021/04/23 01:32:26;;;;;;;10.13;2.63;;;;;;;;;;1495129;39;20499;-83
2021/04/23 01:33:27;;;;;;;12.32;3.67;;;;;;;;;;1495251;39;20416;-83
2021/04/23 01:34:32;;;;;;;9.43;2.63;;;;;;;;;;1495325;39;20395;-84
2021/04/23 01:35:33;;;;;;;13.13;2.85;;;;;;;;;;1491261;39;20654;-83
2021/04/23 01:36:35;;;;;;;9.43;2.75;;;;;;;;;;1491366;39;20397;-84
2021/04/23 01:37:36;;;;;;;13.13;3.17;;;;;;;;;;1495019;39;20701;-84
2021/04/23 01:38:37;;;;;;;14.07;3.53;;;;;;;;;;1495617;39;20772;-83
2021/04/23 01:39:39;;;;;;;9.07;3.53;;;;;;;;;;1495161;39;20391;-83
2021/04/23 01:40:42;;;;;;;12.55;3.30;;;;;;;;;;1495819;39;21061;-83
2021/04/23 01:41:43;;;;;;;7.75;3.40;;;;;;;;;;1495349;39;20840;-83
2021/04/23 01:42:44;;;;;;;12.00;3.05;;;;;;;;;;1495611;39;20835;-83
2021/04/23 01:43:46;;;;;;;13.63;3.30;;;;;;;;;;1495274;39;20416;-83
2021/04/23 01:44:47;;;;;;;12.07;2.47;;;;;;;;;;1494590;39;20391;-83
2021/04/23 01:45:48;;;;;;;11.93;3.30;;;;;;;;;;1495936;39;20444;-83
2021/04/23 01:46:50;;;;;;;12.68;3.35;;;;;;;;;;1491338;39;20401;-83
2021/04/23 01:47:51;;;;;;;8.27;2.88;;;;;;;;;;1486918;39;20407;-83
2021/04/23 01:48:52;;;;;;;13.88;4.35;;;;;;;;;;1490615;39;20469;-83
2021/04/23 01:49:54;;;;;;;8.77;2.78;;;;;;;;;;1495116;39;20395;-83
2021/04/23 01:50:55;;;;;;;14.85;3.65;;;;;;;;;;1491086;39;20508;-84
2021/04/23 01:51:57;;;;;;;10.15;2.97;;;;;;;;;;1490922;39;20775;-85
2021/04/23 01:52:58;;;;;;;15.55;3.58;;;;;;;;;;1491268;39;20401;-83
2021/04/23 01:54:02;;;;;;;12.93;3.38;;;;;;;;;;1491169;39;20404;-84
2021/04/23 01:55:05;;;;;;;14.60;3.50;;;;;;;;;;1495523;39;20395;-83
2021/04/23 01:56:07;;;;;;;13.90;3.30;;;;;;;;;;1495715;39;20407;-83
2021/04/23 01:57:08;;;;;;;9.63;2.85;;;;;;;;;;1494868;39;20412;-84
2021/04/23 01:58:10;;;;;;;10.15;3.00;;;;;;;;;;1495210;39;20687;-83
2021/04/23 01:59:12;;;;;;;11.55;2.70;;;;;;;;;;1491206;39;20392;-83
2021/04/23 02:00:26;;;;;;;12.70;3.50;;;;;;;;;;1491419;39;20483;-82
2021/04/23 02:01:27;;;;;;;10.32;3.13;;;;;;;;;;1491372;39;20397;-83
2021/04/23 02:02:28;;;;;;;15.27;3.38;;;;;;;;;;1488045;39;20711;-82
2021/04/23 02:03:30;;;;;;;11.85;3.63;;;;;;;;;;1492224;39;20650;-83
2021/04/23 02:04:31;;;;;;;13.25;3.22;;;;;;;;;;1495904;39;20493;-83
2021/04/23 02:05:32;;;;;;;12.63;3.53;;;;;;;;;;1495220;39;20388;-83
2021/04/23 02:06:34;;;;;;;12.95;3.78;;;;;;;;;;1495041;39;20676;-83
2021/04/23 02:07:35;;;;;;;10.75;3.20;;;;;;;;;;1491505;39;20404;-84
2021/04/23 02:08:38;;;;;;;13.57;3.58;;;;;;;;;;1491563;39;20421;-83
2021/04/23 02:09:39;;;;;;;13.50;3.60;;;;;;;;;;1490876;39;20409;-82
2021/04/23 02:10:45;;;;;;;13.07;3.90;;;;;;;;;;1486870;39;20399;-83
2021/04/23 02:11:47;;;;;;;11.45;3.72;;;;;;;;;;1491926;39;20386;-83
2021/04/23 02:12:49;;;;;;;9.25;3.25;;;;;;;;;;1495329;39;21058;-83
2021/04/23 02:13:50;;;;;;;11.38;3.25;;;;;;;;;;1491333;39;20405;-84
2021/04/23 02:14:51;;;;;;;12.52;3.53;;;;;;;;;;1495259;39;20438;-83
2021/04/23 02:15:53;;;;;;;10.20;3.30;;;;;;;;;;1495832;39;20400;-83
2021/04/23 02:16:54;;;;;;;8.75;3.00;;;;;;;;;;1495050;39;20396;-83
2021/04/23 02:17:56;;;;;;;10.85;3.17;;;;;;;;;;1491398;39;20772;-83
2021/04/23 02:18:57;;;;;;;12.63;3.42;;;;;;;;;;1495716;39;20546;-82
2021/04/23 02:19:58;;;;;;;15.13;3.40;;;;;;;;;;1496172;39;20633;-83
2021/04/23 02:21:01;;;;;;;12.63;4.00;;;;;;;;;;1495840;39;20423;-82
2021/04/23 02:22:02;;;;;;;14.17;3.30;;;;;;;;;;1494814;39;20399;-83
2021/04/23 02:23:06;;;;;;;15.48;3.67;;;;;;;;;;1495318;39;20415;-83
2021/04/23 02:24:08;;;;;;;11.13;2.85;;;;;;;;;;1496741;39;20387;-82
2021/04/23 02:25:09;;;;;;;9.02;3.30;;;;;;;;;;1500377;39;20423;-84
2021/04/23 02:26:11;;;;;;;10.45;3.40;;;;;;;;;;1496863;39;20424;-84
2021/04/23 02:27:12;;;;;;;12.27;3.83;;;;;;;;;;1496466;39;20420;-83
2021/04/23 02:28:13;;;;;;;11.02;3.53;;;;;;;;;;1500678;39;20399;-82
2021/04/23 02:29:17;;;;;;;11.13;3.85;;;;;;;;;;1500110;39;20415;-83
2021/04/23 02:30:23;;;;;;;10.82;3.05;;;;;;;;;;1496886;39;20409;-82
2021/04/23 02:31:25;;;;;;;14.48;3.13;;;;;;;;;;1496086;39;20401;-83
2021/04/23 02:32:27;;;;;;;8.60;3.45;;;;;;;;;;1500202;39;20402;-84
2021/04/23 02:33:28;;;;;;;14.98;3.40;;;;;;;;;;1497766;39;20512;-83
2021/04/23 02:34:29;;;;;;;12.80;3.17;;;;;;;;;;1495681;39;20406;-83
2021/04/23 02:35:31;;;;;;;14.30;3.83;;;;;;;;;;1496117;39;20399;-82
2021/04/23 02:36:32;;;;;;;10.02;3.47;;;;;;;;;;1495925;39;20783;-82
2021/04/23 02:37:33;;;;;;;11.32;3.30;;;;;;;;;;1491491;39;20393;-83
2021/04/23 02:38:34;;;;;;;10.20;4.20;;;;;;;;;;1487648;39;20410;-83
2021/04/23 02:39:35;;;;;;;12.52;3.17;;;;;;;;;;1487307;39;20411;-83
2021/04/23 02:40:37;;;;;;;14.60;3.25;;;;;;;;;;1487839;39;20737;-83
2021/04/23 02:41:38;;;;;;;11.35;3.67;;;;;;;;;;1495815;39;20395;-83
2021/04/23 02:42:39;;;;;;;12.38;3.70;;;;;;;;;;1496091;39;20415;-83
2021/04/23 02:43:43;;;;;;;8.88;3.55;;;;;;;;;;1491842;39;20405;-83
2021/04/23 02:44:44;;;;;;;10.40;3.40;;;;;;;;;;1496342;39;20469;-84
2021/04/23 02:45:46;;;;;;;12.20;3.60;;;;;;;;;;1498178;39;20415;-83
2021/04/23 02:46:49;;;;;;;9.13;3.58;;;;;;;;;;1498808;39;20418;-83
2021/04/23 02:47:51;;;;;;;14.88;3.45;;;;;;;;;;1498039;39;20384;-83
2021/04/23 02:48:53;;;;;;;14.23;3.92;;;;;;;;;;1493914;39;20424;-82
2021/04/23 02:49:56;;;;;;;13.00;3.55;;;;;;;;;;1491898;39;20401;-82
2021/04/23 02:51:03;;;;;;;16.52;3.30;;;;;;;;;;1496448;39;20422;-82
2021/04/23 02:52:04;;;;;;;15.35;3.88;;;;;;;;;;1497745;39;20418;-83
2021/04/23 02:53:06;;;;;;;9.82;3.30;;;;;;;;;;1501360;39;20567;-83
2021/04/23 02:54:07;;;;;;;14.65;3.90;;;;;;;;;;1497057;39;20409;-83
2021/04/23 02:55:10;;;;;;;12.15;3.70;;;;;;;;;;1492906;39;20429;-83
2021/04/23 02:56:12;;;;;;;8.93;3.25;;;;;;;;;;1492819;39;20407;-82
2021/04/23 02:57:16;;;;;;;15.35;3.50;;;;;;;;;;1500741;39;20454;-82
2021/04/23 02:58:19;;;;;;;13.80;3.85;;;;;;;;;;1501138;39;20411;-81
2021/04/23 02:59:20;;;;;;;7.93;3.20;;;;;;;;;;1497830;39;20381;-82
2021/04/23 03:00:24;;;;;;;12.52;3.22;;;;;;;;;;1501693;39;20460;-82
2021/04/23 03:01:27;;;;;;;15.45;3.97;;;;;;;;;;1501536;39;20430;-83
2021/04/23 03:02:28;;;;;;;10.13;3.47;;;;;;;;;;1501609;39;20407;-83
2021/04/23 03:03:29;;;;;;;11.07;3.10;;;;;;;;;;1501010;39;20464;-82
2021/04/23 03:04:30;;;;;;;8.10;2.90;;;;;;;;;;1500898;39;20822;-82
2021/04/23 03:05:32;;;;;;;14.95;3.53;;;;;;;;;;1499484;39;20411;-83
2021/04/23 03:06:34;;;;;;;9.00;3.70;;;;;;;;;;1496962;39;20402;-82
2021/04/23 03:07:35;;;;;;;13.65;4.32;;;;;;;;;;1495940;39;20396;-82
2021/04/23 03:08:36;;;;;;;12.13;3.83;;;;;;;;;;1495428;39;20416;-82
2021/04/23 03:09:37;;;;;;;10.07;3.42;;;;;;;;;;1495620;39;20404;-83
2021/04/23 03:10:43;;;;;;;14.93;4.28;;;;;;;;;;1495542;39;21083;-83
2021/04/23 03:11:46;;;;;;;10.65;3.75;;;;;;;;;;1491489;39;20725;-82
2021/04/23 03:12:47;;;;;;;14.30;3.67;;;;;;;;;;1494682;39;20386;-82
2021/04/23 03:13:50;;;;;;;13.52;3.92;;;;;;;;;;1495214;39;20792;-82
2021/04/23 03:14:51;;;;;;;14.90;4.07;;;;;;;;;;1495233;39;20414;-82
2021/04/23 03:15:52;;;;;;;11.30;3.90;;;;;;;;;;1495797;39;20411;-83
2021/04/23 03:16:54;;;;;;;14.00;3.90;;;;;;;;;;1495792;39;20421;-83
2021/04/23 03:17:55;;;;;;;12.07;3.50;;;;;;;;;;1491912;39;20385;-83
2021/04/23 03:18:56;;;;;;;13.63;3.70;;;;;;;;;;1491858;39;20411;-83
2021/04/23 03:19:57;;;;;;;15.13;4.77;;;;;;;;;;1487785;39;20421;-82
2021/04/23 03:20:59;;;;;;;12.75;3.92;;;;;;;;;;1496253;39;20407;-84
2021/04/23 03:22:00;;;;;;;12.15;3.53;;;;;;;;;;1496389;39;20500;-83
2021/04/23 03:23:02;;;;;;;14.57;3.78;;;;;;;;;;1497244;39;20437;-83
2021/04/23 03:24:03;;;;;;;12.65;3.65;;;;;;;;;;1495785;39;20442;-82
2021/04/23 03:25:04;;;;;;;9.38;3.75;;;;;;;;;;1489832;39;20986;-82
2021/04/23 03:26:06;;;;;;;10.57;3.65;;;;;;;;;;1491009;39;20417;-83
2021/04/23 03:27:07;;;;;;;10.18;3.58;;;;;;;;;;1491014;39;20409;-83
2021/04/23 03:28:08;;;;;;;13.73;3.50;;;;;;;;;;1494950;39;20496;-83
2021/04/23 03:29:10;;;;;;;15.77;4.13;;;;;;;;;;1495066;39;20395;-82
2021/04/23 03:30:14;;;;;;;12.98;4.35;;;;;;;;;;1495317;39;20394;-82
2021/04/23 03:31:15;;;;;;;14.05;3.75;;;;;;;;;;1494912;39;20789;-83
2021/04/23 03:32:17;;;;;;;19.27;3.58;;;;;;;;;;1494955;39;20415;-83
2021/04/23 03:33:18;;;;;;;15.75;4.18;;;;;;;;;;1495167;39;20955;-82
2021/04/23 03:34:21;;;;;;;12.63;3.72;;;;;;;;;;1491098;39;20686;-82
2021/04/23 03:35:23;;;;;;;13.15;4.28;;;;;;;;;;1491236;39;20418;-83
2021/04/23 03:36:26;;;;;;;12.40;3.63;;;;;;;;;;1490888;39;20412;-82
2021/04/23 03:37:27;;;;;;;12.32;3.70;;;;;;;;;;1494800;39;20780;-83
2021/04/23 03:38:29;;;;;;;9.10;3.25;;;;;;;;;;1504621;39;20458;-83
2021/04/23 03:39:30;;;;;;;12.52;4.00;;;;;;;;;;1505082;39;20409;-83
2021/04/23 03:40:32;;;;;;;12.38;3.97;;;;;;;;;;1505143;39;20390;-82
2021/04/23 03:41:33;;;;;;;16.00;4.35;;;;;;;;;;1501163;39;20392;-82
2021/04/23 03:42:35;;;;;;;9.95;3.97;;;;;;;;;;1493060;39;20476;-82
2021/04/23 03:43:36;;;;;;;11.30;3.85;;;;;;;;;;1495657;39;20420;-82
2021/04/23 03:44:37;;;;;;;10.40;4.10;;;;;;;;;;1502216;39;20666;-82
2021/04/23 03:45:38;;;;;;;21.67;4.17;;;;;;;;;;1497801;39;20410;-82
2021/04/23 03:46:39;;;;;;;11.23;3.88;;;;;;;;;;1492932;39;20405;-82
2021/04/23 03:47:41;;;;;;;12.73;3.42;;;;;;;;;;1491721;39;20473;-82
2021/04/23 03:48:43;;;;;;;12.85;3.30;;;;;;;;;;1491156;39;20409;-83
2021/04/23 03:49:45;;;;;;;13.85;4.13;;;;;;;;;;1490974;39;20400;-82
2021/04/23 03:50:46;;;;;;;8.15;3.42;;;;;;;;;;1491107;39;20413;-82
2021/04/23 03:51:47;;;;;;;9.15;3.90;;;;;;;;;;1490520;39;20407;-83
2021/04/23 03:52:49;;;;;;;11.75;4.00;;;;;;;;;;1492540;39;20414;-84
2021/04/23 03:53:52;;;;;;;17.15;4.80;;;;;;;;;;1496438;39;20412;-83
2021/04/23 03:54:54;;;;;;;9.77;3.40;;;;;;;;;;1498057;39;20465;-82
2021/04/23 03:55:56;;;;;;;16.15;4.03;;;;;;;;;;1492864;39;20397;-82
2021/04/23 03:56:57;;;;;;;12.77;4.85;;;;;;;;;;1492677;39;20404;-83
2021/04/23 03:58:00;;;;;;;12.05;3.92;;;;;;;;;;1501912;39;20392;-83
2021/04/23 03:59:01;;;;;;;10.43;3.58;;;;;;;;;;1501350;39;20411;-83
2021/04/23 04:00:06;;;;;;;16.40;4.95;;;;;;;;;;1500861;39;20414;-83
2021/04/23 04:01:12;;;;;;;10.68;3.28;;;;;;;;;;1501630;39;20469;-82
2021/04/23 04:02:13;;;;;;;10.23;3.88;;;;;;;;;;1500934;39;20843;-82
2021/04/23 04:03:15;;;;;;;13.97;4.73;;;;;;;;;;1501027;39;20472;-83
2021/04/23 04:04:16;;;;;;;16.27;4.15;;;;;;;;;;1500085;39;20407;-83
2021/04/23 04:05:18;;;;;;;14.15;4.47;;;;;;;;;;1499713;39;20398;-81
2021/04/23 04:06:22;;;;;;;14.73;4.00;;;;;;;;;;1495513;39;20388;-83
2021/04/23 04:07:23;;;;;;;11.95;3.92;;;;;;;;;;1495279;39;20399;-82
2021/04/23 04:08:24;;;;;;;11.55;4.30;;;;;;;;;;1490817;39;20409;-82
2021/04/23 04:09:24;;;;;;;13.07;4.00;;;;;;;;;;1482438;39;20415;-82
2021/04/23 04:10:26;;;;;;;16.15;3.83;;;;;;;;;;1486963;39;20518;-83
2021/04/23 04:11:27;;;;;;;12.13;4.28;;;;;;;;;;1494517;39;20395;-83
2021/04/23 04:12:28;;;;;;;9.35;4.15;;;;;;;;;;1494475;39;20403;-82
2021/04/23 04:13:29;;;;;;;12.68;4.40;;;;;;;;;;1490434;39;20417;-83
2021/04/23 04:14:30;;;;;;;14.63;5.40;;;;;;;;;;1489037;39;20790;-82
2021/04/23 04:15:31;;;;;;;15.18;4.40;;;;;;;;;;1494811;39;20399;-83
2021/04/23 04:16:32;;;;;;;12.90;4.22;;;;;;;;;;1494832;39;20394;-82
2021/04/23 04:17:33;;;;;;;11.27;3.63;;;;;;;;;;1494932;39;20383;-82
2021/04/23 04:18:35;;;;;;;12.32;4.28;;;;;;;;;;1490836;39;20397;-83
2021/04/23 04:19:36;;;;;;;10.63;4.28;;;;;;;;;;1490483;39;20425;-82
2021/04/23 04:20:40;;;;;;;14.73;4.65;;;;;;;;;;1486680;39;20398;-83
2021/04/23 04:21:41;;;;;;;14.75;4.60;;;;;;;;;;1491336;39;20413;-82
2021/04/23 04:22:43;;;;;;;11.57;3.70;;;;;;;;;;1494819;39;20693;-82
2021/04/23 04:23:44;;;;;;;12.60;4.72;;;;;;;;;;1490683;39;20674;-82
2021/04/23 04:24:45;;;;;;;12.50;4.63;;;;;;;;;;1491143;39;20412;-83
2021/04/23 04:25:48;;;;;;;10.63;5.05;;;;;;;;;;1486706;39;20851;-83
2021/04/23 04:26:49;;;;;;;10.90;4.40;;;;;;;;;;1490068;39;20535;-82
2021/04/23 04:27:50;;;;;;;13.55;4.13;;;;;;;;;;1490981;39;20392;-82
2021/04/23 04:28:51;;;;;;;16.50;5.53;;;;;;;;;;1486606;39;20395;-82
2021/04/23 04:29:54;;;;;;;11.98;4.25;;;;;;;;;;1482755;40;20786;-83
2021/04/23 04:30:55;;;;;;;11.82;4.20;;;;;;;;;;1486453;40;20787;-84
2021/04/23 04:32:17;;;;;;;10.45;4.25;;;;;;;;;;1487307;39;20418;-83
2021/04/23 04:33:19;;;;;;;9.93;3.53;;;;;;;;;;1491513;39;20401;-84
2021/04/23 04:34:20;;;;;;;12.50;4.90;;;;;;;;;;1492114;39;20405;-83
2021/04/23 04:35:21;;;;;;;16.55;5.45;;;;;;;;;;1491602;39;20452;-83
2021/04/23 04:36:22;;;;;;;12.52;4.32;;;;;;;;;;1491241;39;20417;-83
2021/04/23 04:37:23;;;;;;;13.23;3.92;;;;;;;;;;1487582;39;20605;-83
2021/04/23 04:38:24;;;;;;;10.63;3.83;;;;;;;;;;1489002;39;20625;-82
2021/04/23 04:39:25;;;;;;;13.70;4.45;;;;;;;;;;1489729;39;21161;-83
2021/04/23 04:40:27;;;;;;;15.20;4.18;;;;;;;;;;1490713;39;20427;-83
2021/04/23 04:41:28;;;;;;;14.50;4.50;;;;;;;;;;1491162;39;20405;-82
2021/04/23 04:42:29;;;;;;;9.80;4.10;;;;;;;;;;1490762;39;20398;-83
2021/04/23 04:43:30;;;;;;;11.80;4.35;;;;;;;;;;1490773;39;20401;-82
2021/04/23 04:44:32;;;;;;;10.75;4.28;;;;;;;;;;1494975;39;20407;-82
2021/04/23 04:45:33;;;;;;;11.40;5.03;;;;;;;;;;1494995;39;20419;-82
2021/04/23 04:46:34;;;;;;;8.85;4.05;;;;;;;;;;1494822;39;20391;-82
2021/04/23 04:47:36;;;;;;;12.45;4.53;;;;;;;;;;1490954;39;20404;-82
2021/04/23 04:48:37;;;;;;;13.07;5.70;;;;;;;;;;1486450;39;20937;-82
2021/04/23 04:49:38;;;;;;;14.82;5.30;;;;;;;;;;1486323;39;20430;-82
2021/04/23 04:50:50;;;;;;;12.80;5.03;;;;;;;;;;1486090;40;20724;-83
2021/04/23 04:51:51;;;;;;;11.27;5.30;;;;;;;;;;1486889;39;20387;-82
2021/04/23 04:52:53;;;;;;;13.98;5.32;;;;;;;;;;1491194;39;20385;-82
2021/04/23 04:53:54;;;;;;;13.65;5.38;;;;;;;;;;1490793;39;20454;-82
2021/04/23 04:54:56;;;;;;;15.48;4.60;;;;;;;;;;1490695;39;20393;-82
2021/04/23 04:55:57;;;;;;;23.77;4.88;;;;;;;;;;1490718;39;20401;-83
2021/04/23 04:57:00;;;;;;;16.58;4.38;;;;;;;;;;1490607;39;20729;-83
2021/04/23 04:58:01;;;;;;;13.48;4.47;;;;;;;;;;1490591;39;20447;-83
2021/04/23 04:59:02;;;;;;;13.40;5.20;;;;;;;;;;1490800;39;20408;-83
2021/04/23 05:00:07;;;;;;;10.05;5.30;;;;;;;;;;1490545;39;20401;-83
2021/04/23 05:01:09;;;;;;;20.95;5.38;;;;;;;;;;1491192;39;20416;-82
2021/04/23 05:02:12;;;;;;;11.38;4.88;;;;;;;;;;1487614;40;20406;-83
2021/04/23 05:03:14;;;;;;;14.35;5.40;;;;;;;;;;1486558;39;20407;-82
2021/04/23 05:04:18;;;;;;;13.23;5.80;;;;;;;;;;1486797;39;20402;-83
2021/04/23 05:05:19;;;;;;;10.15;4.70;;;;;;;;;;1490824;39;20481;-82
2021/04/23 05:06:21;;;;;;;17.23;5.03;;;;;;;;;;1494835;39;20423;-82
2021/04/23 05:07:22;;;;;;;10.43;5.00;;;;;;;;;;1491472;39;20767;-83
2021/04/23 05:08:23;;;;;;;14.30;5.47;;;;;;;;;;1490713;39;20393;-83
2021/04/23 05:09:27;;;;;;;13.52;4.47;;;;;;;;;;1490403;39;20401;-82
2021/04/23 05:10:28;;;;;;;11.30;4.75;;;;;;;;;;1490951;39;20805;-83
2021/04/23 05:11:29;;;;;;;9.45;3.95;;;;;;;;;;1490857;39;20406;-83
2021/04/23 05:12:33;;;;;;;12.03;5.27;;;;;;;;;;1487454;39;20776;-83
2021/04/23 05:13:34;;;;;;;11.50;4.38;;;;;;;;;;1487668;39;20441;-83
2021/04/23 05:14:35;;;;;;;10.10;4.60;;;;;;;;;;1487457;39;20407;-83
2021/04/23 05:15:36;;;;;;;16.98;4.68;;;;;;;;;;1482124;40;20460;-82
2021/04/23 05:16:39;;;;;;;17.58;5.45;;;;;;;;;;1482243;40;20890;-83
2021/04/23 05:17:41;;;;;;;12.88;5.25;;;;;;;;;;1478739;40;20402;-84
2021/04/23 05:18:44;;;;;;;14.45;5.20;;;;;;;;;;1482491;40;20818;-82
2021/04/23 05:19:46;;;;;;;10.05;4.47;;;;;;;;;;1486381;40;20410;-83
2021/04/23 05:20:48;;;;;;;14.77;4.68;;;;;;;;;;1486737;40;20407;-82
2021/04/23 05:21:49;;;;;;;12.27;5.25;;;;;;;;;;1487016;40;20482;-83
2021/04/23 05:22:50;;;;;;;13.13;5.18;;;;;;;;;;1482572;39;20423;-82
2021/04/23 05:23:51;;;;;;;9.27;4.38;;;;;;;;;;1490757;39;20424;-83
2021/04/23 05:24:52;;;;;;;12.25;4.85;;;;;;;;;;1490896;39;20672;-82
2021/04/23 05:25:58;;;;;;;13.43;5.82;;;;;;;;;;1494175;39;20517;-82
2021/04/23 05:26:59;;;;;;;14.23;5.93;;;;;;;;;;1491310;39;20412;-81
2021/04/23 05:28:00;;;;;;;13.33;4.83;;;;;;;;;;1487814;39;20528;-83
2021/04/23 05:29:04;;;;;;;14.35;5.10;;;;;;;;;;1487454;39;20406;-83
2021/04/23 05:30:08;;;;;;;10.93;5.05;;;;;;;;;;1494772;39;20391;-83
2021/04/23 05:31:09;;;;;;;12.35;4.82;;;;;;;;;;1496944;39;20407;-84
2021/04/23 05:32:10;;;;;;;16.58;6.15;;;;;;;;;;1497483;39;20396;-84
2021/04/23 05:33:12;;;;;;;19.20;6.30;;;;;;;;;;1488385;39;20398;-83
2021/04/23 05:34:13;;;;;;;11.88;5.50;;;;;;;;;;1492875;39;20386;-83
2021/04/23 05:35:15;;;;;;;13.77;5.18;;;;;;;;;;1495974;39;20804;-84
2021/04/23 05:36:16;;;;;;;16.92;5.20;;;;;;;;;;1496635;39;20446;-83
2021/04/23 05:37:17;;;;;;;16.75;6.28;;;;;;;;;;1498787;39;20414;-83
2021/04/23 05:38:19;;;;;;;15.45;5.40;;;;;;;;;;1497012;39;20424;-83
2021/04/23 05:39:22;;;;;;;10.43;5.07;;;;;;;;;;1497053;39;20472;-83
2021/04/23 05:40:25;;;;;;;12.75;5.10;;;;;;;;;;1496792;39;20401;-82
2021/04/23 05:41:27;;;;;;;18.05;5.97;;;;;;;;;;1500069;39;20411;-83
2021/04/23 05:42:30;;;;;;;17.38;6.43;;;;;;;;;;1499689;39;20438;-83
2021/04/23 05:43:31;;;;;;;18.58;5.55;;;;;;;;;;1500280;39;20540;-83
2021/04/23 05:44:33;;;;;;;18.60;6.63;;;;;;;;;;1501771;39;20482;-83
2021/04/23 05:45:36;;;;;;;15.73;5.63;;;;;;;;;;1502017;39;20425;-82
2021/04/23 05:46:37;;;;;;;15.02;6.00;;;;;;;;;;1501508;39;20486;-83
2021/04/23 05:47:39;;;;;;;16.75;6.50;;;;;;;;;;1500780;39;20388;-83
2021/04/23 05:48:41;;;;;;;16.95;6.40;;;;;;;;;;1496013;39;20445;-82
2021/04/23 05:49:42;;;;;;;19.00;6.88;;;;;;;;;;1495234;39;20413;-82
2021/04/23 05:50:45;;;;;;;15.30;5.75;;;;;;;;;;1498792;39;20406;-83
2021/04/23 05:51:46;;;;;;;16.90;5.93;;;;;;;;;;1499499;39;20415;-83
2021/04/23 05:52:49;;;;;;;12.18;5.72;;;;;;;;;;1494395;39;20436;-83
2021/04/23 05:53:50;;;;;;;19.08;6.75;;;;;;;;;;1496613;39;20403;-83
2021/04/23 05:54:51;;;;;;;17.92;5.50;;;;;;;;;;1496627;39;20399;-84
2021/04/23 05:55:52;;;;;;;17.95;5.50;;;;;;;;;;1487528;39;20422;-83
2021/04/23 05:56:53;;;;;;;15.45;5.20;;;;;;;;;;1492452;39;20417;-83
2021/04/23 05:57:56;;;;;;;24.05;6.22;;;;;;;;;;1496719;39;20400;-83
2021/04/23 05:58:57;;;;;;;40.92;7.45;;;;;;;;;;1492746;39;20417;-83
2021/04/23 05:59:58;;;;;;;38.85;7.57;;;;;;;;;;1492136;39;20456;-82
2021/04/23 06:00:59;;;;;;;36.72;7.47;;;;;;;;;;1495152;39;20387;-83
2021/04/23 06:02:00;;;;;;;26.25;7.43;;;;;;;;;;1496880;39;20459;-82
2021/04/23 06:03:04;;;;;;;22.90;6.00;;;;;;;;;;1500944;39;20398;-83
2021/04/23 06:04:06;;;;;;;38.80;7.85;;;;;;;;;;1497118;39;20401;-84
2021/04/23 06:05:08;;;;;;;33.03;6.93;;;;;;;;;;1492781;39;20430;-83
2021/04/23 06:06:09;;;;;;;23.80;5.13;;;;;;;;;;1493032;39;20403;-83
2021/04/23 06:07:10;;;;;;;18.65;4.75;;;;;;;;;;1495465;39;20397;-83
2021/04/23 06:08:11;;;;;;;18.25;4.75;;;;;;;;;;1497170;39;20393;-83